Terminal Aerodrome Forecast
Issued by NWS

Home | Current Version | Previous Version | Text Only | Print | Product List | Glossary On
Versions: 1 2 3 4 5 6 7 8 9 10 11 12 13 14 15 16 17 18 19
000
FTUS45 KFGZ 230500
TAFPRC
TAF
KPRC 230532Z 2306/2406 20006KT P6SM SKC
     FM231800 22008G15KT P6SM SCT060
     FM240200 20006KT P6SM FEW060=

USA.gov is the U.S. government's official web portal to all federal, state and local government web resources and services.